Stations météo

réclame
Mon MeteoGroup
Great Dun Fell, Grande-Bretagne (3227): Température de l'air & dewpoint: 09.08.2018 00:00:00 - 15.08.2018 00:00:00 (BST)Great Dun Fell, Grande-Bretagne (3227): Vitesse du vent & gusts: 09.08.2018 00:00:00 - 15.08.2018 00:00:00 (BST)Great Dun Fell, Grande-Bretagne (3227): Direction du vent: 09.08.2018 00:00:00 - 15.08.2018 00:00:00 (BST)
Date & Time tt [°C] td [°C] ff [km/h] ff [knt] fx [km/h] fx [knt] dd
15.08.2018 00:00:00 - - - - - - -
14.08.2018 23:00:00 11,9 11,9 44 24 54 29 WSW
14.08.2018 22:00:00 12,1 12,1 41 22 52 28 SW
14.08.2018 21:00:00 12,0 12,0 42 23 52 28 SW
14.08.2018 20:00:00 11,9 11,9 42 23 50 27 SW
14.08.2018 19:00:00 11,8 11,8 39 21 55 30 SW
14.08.2018 18:00:00 11,8 11,8 48 26 61 33 WSW
14.08.2018 17:00:00 11,8 11,8 50 27 55 30 SW
14.08.2018 16:00:00 11,7 11,7 44 24 55 30 WSW
14.08.2018 15:00:00 11,9 11,9 39 21 50 27 WSW
14.08.2018 14:00:00 11,3 11,3 35 19 - - WSW
14.08.2018 13:00:00 11,5 11,5 44 24 52 28 WSW
14.08.2018 12:00:00 11,2 11,1 41 22 55 30 W
14.08.2018 11:00:00 11,0 11,0 42 23 52 28 WSW
14.08.2018 10:00:00 10,7 10,7 39 21 48 26 WSW
14.08.2018 09:00:00 10,1 10,1 39 21 - - WSW
14.08.2018 08:00:00 9,8 9,8 37 20 - - WSW
14.08.2018 07:00:00 9,3 9,3 31 17 - - WSW
14.08.2018 06:00:00 9,5 9,5 37 20 - - WSW
14.08.2018 05:00:00 9,3 9,3 34 18 - - W
14.08.2018 04:00:00 9,0 9,0 29 16 54 29 W
14.08.2018 03:00:00 9,1 9,1 35 19 - - W
14.08.2018 02:00:00 9,6 9,6 34 18 - - W
14.08.2018 01:00:00 10,3 10,3 31 17 - - W
14.08.2018 00:00:00 11,0 11,0 29 16 - - W
13.08.2018 23:00:00 11,5 11,5 24 13 - - W
13.08.2018 22:00:00 11,7 11,7 24 13 - - W
13.08.2018 21:00:00 12,2 12,2 26 14 - - W
13.08.2018 20:00:00 12,7 12,7 9 5 - - N
13.08.2018 19:00:00 12,7 12,7 22 12 - - N
13.08.2018 18:00:00 13,0 12,7 24 13 - - N
13.08.2018 17:00:00 13,9 11,7 28 15 - - WNW
13.08.2018 16:00:00 13,5 12,4 21 11 - - NW
13.08.2018 15:00:00 13,0 12,7 22 12 - - NW
13.08.2018 14:00:00 13,2 12,7 21 11 - - WNW
13.08.2018 13:00:00 12,9 12,9 13 7 - - NW
13.08.2018 12:00:00 12,6 11,1 16 9 - - WNW
13.08.2018 11:00:00 13,1 11,7 4 2 - - W
13.08.2018 10:00:00 12,6 11,3 5 3 - - NNE
13.08.2018 09:00:00 12,5 12,5 13 7 - - ENE
13.08.2018 08:00:00 12,5 12,5 15 8 - - ENE
13.08.2018 07:00:00 12,4 12,4 13 7 - - NE
13.08.2018 06:00:00 12,4 12,4 9 5 - - NNE
13.08.2018 05:00:00 12,5 12,5 8 4 - - NW
13.08.2018 04:00:00 12,4 12,4 4 2 - - E
13.08.2018 03:00:00 12,7 12,7 4 2 - - S
13.08.2018 02:00:00 12,9 12,9 5 3 - - S
13.08.2018 01:00:00 13,0 13,0 11 6 - - S
13.08.2018 00:00:00 12,9 12,9 16 9 - - S
12.08.2018 23:00:00 13,1 13,1 15 8 - - S
12.08.2018 22:00:00 13,0 12,9 16 9 - - S
12.08.2018 21:00:00 13,2 13,2 15 8 - - S
12.08.2018 20:00:00 13,8 13,8 16 9 - - SSW
12.08.2018 19:00:00 14,0 13,6 15 8 - - SSW
12.08.2018 18:00:00 14,2 12,7 15 8 - - WSW
12.08.2018 17:00:00 14,0 12,8 13 7 - - SW
12.08.2018 16:00:00 13,6 13,6 13 7 - - SW
12.08.2018 15:00:00 13,4 12,8 22 12 - - SW
12.08.2018 14:00:00 13,5 13,2 24 13 - - SW
12.08.2018 13:00:00 13,0 12,9 37 20 48 26 SW
12.08.2018 12:00:00 12,8 12,8 42 23 54 29 WSW
12.08.2018 11:00:00 12,2 12,2 41 22 61 33 WSW
12.08.2018 10:00:00 12,2 12,2 50 27 55 30 WSW
12.08.2018 09:00:00 12,4 12,4 39 21 54 29 SW
12.08.2018 08:00:00 12,4 12,4 48 26 54 29 SW
12.08.2018 07:00:00 12,3 12,3 39 21 48 26 SW
12.08.2018 06:00:00 12,3 12,3 39 21 46 25 SSW
12.08.2018 05:00:00 12,3 12,3 37 20 48 26 SSW
12.08.2018 04:00:00 12,2 12,2 37 20 - - SSW
12.08.2018 03:00:00 12,1 12,1 31 17 46 25 SSW
12.08.2018 02:00:00 11,8 11,8 37 20 - - SSW
12.08.2018 01:00:00 11,5 11,5 37 20 46 25 SSW
12.08.2018 00:00:00 11,3 11,3 39 21 48 26 S
11.08.2018 23:00:00 10,9 10,9 37 20 50 27 S
11.08.2018 22:00:00 10,2 10,2 37 20 46 25 S
11.08.2018 21:00:00 9,8 9,5 34 18 - - S
11.08.2018 20:00:00 11,8 6,9 31 17 - - S
11.08.2018 19:00:00 11,9 6,6 28 15 - - S
11.08.2018 18:00:00 11,7 6,0 26 14 - - S
11.08.2018 17:00:00 11,8 4,7 26 14 - - SW
11.08.2018 16:00:00 11,4 0,9 37 20 52 28 SW
11.08.2018 15:00:00 11,2 5,0 35 19 48 26 WSW
11.08.2018 14:00:00 10,5 4,7 34 18 46 25 SW
11.08.2018 13:00:00 9,1 5,6 35 19 - - SW
11.08.2018 12:00:00 8,7 3,6 31 17 - - WSW
11.08.2018 11:00:00 7,8 5,4 28 15 - - WSW
11.08.2018 10:00:00 6,4 2,8 28 15 - - WSW
11.08.2018 09:00:00 5,6 2,5 24 13 - - W
11.08.2018 08:00:00 5,4 5,0 28 15 - - W
11.08.2018 07:00:00 5,2 5,2 28 15 - - W
11.08.2018 06:00:00 5,4 5,4 28 15 - - W
11.08.2018 05:00:00 5,4 5,4 29 16 - - W
11.08.2018 04:00:00 5,5 5,5 31 17 - - W
11.08.2018 03:00:00 5,8 5,8 31 17 - - W
11.08.2018 02:00:00 6,0 6,0 29 16 - - WNW
11.08.2018 01:00:00 6,3 6,3 28 15 - - WNW
11.08.2018 00:00:00 6,7 6,7 31 17 - - WNW
10.08.2018 23:00:00 7,1 7,1 29 16 - - WNW
10.08.2018 22:00:00 7,2 7,2 34 18 - - W
10.08.2018 21:00:00 7,3 7,3 21 11 - - W
10.08.2018 20:00:00 7,8 7,2 31 17 - - W
10.08.2018 19:00:00 8,0 6,0 34 18 52 28 W
10.08.2018 18:00:00 8,4 4,2 39 21 52 28 W
10.08.2018 17:00:00 8,1 5,1 35 19 52 28 W
10.08.2018 16:00:00 7,3 5,1 39 21 52 28 W
10.08.2018 15:00:00 6,5 5,5 37 20 55 30 W
10.08.2018 14:00:00 7,0 2,2 34 18 - - W
10.08.2018 13:00:00 5,4 1,6 24 13 - - W
10.08.2018 12:00:00 5,4 4,0 26 14 - - W
10.08.2018 11:00:00 5,8 5,3 22 12 - - W
10.08.2018 10:00:00 5,2 5,2 22 12 - - W
10.08.2018 09:00:00 5,1 4,9 24 13 48 26 W
10.08.2018 08:00:00 6,3 6,1 31 17 - - WSW
10.08.2018 07:00:00 6,3 6,3 24 13 - - WSW
10.08.2018 06:00:00 6,3 6,3 35 19 - - W
10.08.2018 05:00:00 6,6 6,6 31 17 - - WSW
10.08.2018 04:00:00 7,0 7,0 26 14 - - SW
10.08.2018 03:00:00 7,2 7,2 26 14 - - SW
10.08.2018 02:00:00 6,7 5,2 18 10 - - SSW
10.08.2018 01:00:00 7,2 5,5 18 10 - - SW
10.08.2018 00:00:00 6,8 5,9 26 14 - - WSW
09.08.2018 23:00:00 6,5 5,3 29 16 - - W
09.08.2018 22:00:00 6,7 5,0 29 16 - - W
09.08.2018 21:00:00 8,0 5,1 21 11 - - W
09.08.2018 20:00:00 8,8 3,4 28 15 - - W
09.08.2018 19:00:00 9,3 2,2 35 19 - - W
09.08.2018 18:00:00 10,2 1,6 28 15 - - W
09.08.2018 17:00:00 9,7 1,8 26 14 - - W
09.08.2018 16:00:00 10,1 2,2 28 15 - - W
09.08.2018 15:00:00 9,8 1,8 22 12 - - WSW
09.08.2018 14:00:00 9,9 2,4 26 14 - - W
09.08.2018 13:00:00 9,1 1,8 34 18 - - W
09.08.2018 12:00:00 9,0 1,9 31 17 - - W
09.08.2018 11:00:00 8,3 2,8 37 20 - - WSW
09.08.2018 10:00:00 6,8 4,2 29 16 - - SW
09.08.2018 09:00:00 6,8 6,5 29 16 - - WSW
09.08.2018 08:00:00 6,6 6,6 31 17 - - SW
09.08.2018 07:00:00 5,9 5,9 26 14 - - SW
09.08.2018 06:00:00 6,1 6,1 24 13 - - WSW
09.08.2018 05:00:00 6,3 6,3 24 13 - - WSW
09.08.2018 04:00:00 6,3 6,3 22 12 - - SW
09.08.2018 03:00:00 6,6 6,6 28 15 - - WSW
09.08.2018 02:00:00 6,6 6,6 31 17 - - SW
09.08.2018 01:00:00 6,8 6,8 29 16 - - WSW
09.08.2018 00:00:00 6,8 6,8 24 13 - - WSW

tt = Température de l'air
td = dewpoint
ff = Vitesse du vent
fx = gusts
dd = Direction du vent

stations d'obs. à proximité